sensor_id;sensor_type;location;lat;lon;timestamp;pressure;altitude;pressure_sealevel;temperature;humidity
37066;BME280;22981;43.080;25.550;2023-09-07T00:00:19;100084.05;;;19.26;69.56
37066;BME280;22981;43.080;25.550;2023-09-07T00:02:47;100083.78;;;19.25;69.66
37066;BME280;22981;43.080;25.550;2023-09-07T00:05:14;100080.80;;;19.24;69.71
37066;BME280;22981;43.080;25.550;2023-09-07T00:07:42;100079.41;;;19.22;69.61
37066;BME280;22981;43.080;25.550;2023-09-07T00:10:10;100086.98;;;19.17;69.63
37066;BME280;22981;43.080;25.550;2023-09-07T00:12:37;100092.11;;;19.14;69.82
37066;BME280;22981;43.080;25.550;2023-09-07T00:15:06;100092.08;;;19.06;70.19
37066;BME280;22981;43.080;25.550;2023-09-07T00:17:34;100089.88;;;19.03;70.39
37066;BME280;22981;43.080;25.550;2023-09-07T00:20:01;100093.94;;;19.06;70.39
37066;BME280;22981;43.080;25.550;2023-09-07T00:22:31;100096.66;;;19.06;70.45
37066;BME280;22981;43.080;25.550;2023-09-07T00:24:59;100099.67;;;19.07;70.48
37066;BME280;22981;43.080;25.550;2023-09-07T00:27:27;100099.91;;;19.05;70.54
37066;BME280;22981;43.080;25.550;2023-09-07T00:29:54;100100.45;;;19.05;70.60
37066;BME280;22981;43.080;25.550;2023-09-07T00:32:22;100100.45;;;19.05;70.68
37066;BME280;22981;43.080;25.550;2023-09-07T00:34:49;100102.89;;;19.04;70.71
37066;BME280;22981;43.080;25.550;2023-09-07T00:37:17;100106.94;;;19.01;70.77
37066;BME280;22981;43.080;25.550;2023-09-07T00:39:44;100106.09;;;18.95;70.90
37066;BME280;22981;43.080;25.550;2023-09-07T00:42:12;100100.35;;;18.89;71.18
37066;BME280;22981;43.080;25.550;2023-09-07T00:44:39;100103.00;;;18.84;71.36
37066;BME280;22981;43.080;25.550;2023-09-07T00:47:07;100110.55;;;18.80;71.53
37066;BME280;22981;43.080;25.550;2023-09-07T00:49:34;100116.52;;;18.76;71.76
37066;BME280;22981;43.080;25.550;2023-09-07T00:52:02;100111.09;;;18.76;71.81
37066;BME280;22981;43.080;25.550;2023-09-07T00:54:30;100114.35;;;18.79;71.82
37066;BME280;22981;43.080;25.550;2023-09-07T00:56:58;100107.02;;;18.76;71.94
37066;BME280;22981;43.080;25.550;2023-09-07T00:59:26;100112.14;;;18.75;72.02
37066;BME280;22981;43.080;25.550;2023-09-07T01:01:54;100112.69;;;18.75;72.21
37066;BME280;22981;43.080;25.550;2023-09-07T01:04:22;100107.27;;;18.75;72.26
37066;BME280;22981;43.080;25.550;2023-09-07T01:06:52;100107.30;;;18.78;72.27
37066;BME280;22981;43.080;25.550;2023-09-07T01:09:23;100106.48;;;18.77;72.32
37066;BME280;22981;43.080;25.550;2023-09-07T01:11:51;100111.64;;;18.76;72.42
37066;BME280;22981;43.080;25.550;2023-09-07T01:14:19;100110.28;;;18.76;72.50
37066;BME280;22981;43.080;25.550;2023-09-07T01:16:46;100106.45;;;18.74;72.65
37066;BME280;22981;43.080;25.550;2023-09-07T01:19:14;100098.31;;;18.74;72.75
37066;BME280;22981;43.080;25.550;2023-09-07T01:21:43;100096.14;;;18.74;72.81
37066;BME280;22981;43.080;25.550;2023-09-07T01:24:11;100095.05;;;18.72;72.87
37066;BME280;22981;43.080;25.550;2023-09-07T01:26:40;100091.53;;;18.72;72.92
37066;BME280;22981;43.080;25.550;2023-09-07T01:29:09;100095.80;;;18.68;72.96
37066;BME280;22981;43.080;25.550;2023-09-07T01:31:37;100092.78;;;18.64;73.09
37066;BME280;22981;43.080;25.550;2023-09-07T01:34:06;100089.25;;;18.64;73.18
37066;BME280;22981;43.080;25.550;2023-09-07T01:36:34;100089.25;;;18.64;73.24
37066;BME280;22981;43.080;25.550;2023-09-07T01:39:03;100091.42;;;18.64;73.29
37066;BME280;22981;43.080;25.550;2023-09-07T01:41:32;100092.74;;;18.62;73.37
37066;BME280;22981;43.080;25.550;2023-09-07T01:44:00;100084.87;;;18.60;73.36
37066;BME280;22981;43.080;25.550;2023-09-07T01:46:27;100084.60;;;18.59;73.37
37066;BME280;22981;43.080;25.550;2023-09-07T01:48:55;100092.73;;;18.59;73.41
37066;BME280;22981;43.080;25.550;2023-09-07T01:51:22;100098.98;;;18.62;73.42
37066;BME280;22981;43.080;25.550;2023-09-07T01:53:52;100095.45;;;18.62;73.42
37066;BME280;22981;43.080;25.550;2023-09-07T01:56:19;100102.77;;;18.61;73.51
37066;BME280;22981;43.080;25.550;2023-09-07T01:58:47;100101.37;;;18.56;73.67
37066;BME280;22981;43.080;25.550;2023-09-07T02:01:31;100109.42;;;18.48;73.95
37066;BME280;22981;43.080;25.550;2023-09-07T02:03:56;100104.50;;;18.43;74.15
37066;BME280;22981;43.080;25.550;2023-09-07T02:06:24;100097.95;;;18.39;74.27
37066;BME280;22981;43.080;25.550;2023-09-07T02:08:51;100104.42;;;18.35;74.41
37066;BME280;22981;43.080;25.550;2023-09-07T02:11:19;100108.94;;;18.27;74.52
37066;BME280;22981;43.080;25.550;2023-09-07T02:13:48;100107.53;;;18.22;74.70
37066;BME280;22981;43.080;25.550;2023-09-07T02:16:17;100108.62;;;18.23;74.74
37066;BME280;22981;43.080;25.550;2023-09-07T02:18:45;100105.41;;;18.26;74.73
37066;BME280;22981;43.080;25.550;2023-09-07T02:21:13;100107.03;;;18.27;74.78
37066;BME280;22981;43.080;25.550;2023-09-07T02:23:41;100113.81;;;18.27;74.79
37066;BME280;22981;43.080;25.550;2023-09-07T02:26:09;100112.77;;;18.29;74.88
37066;BME280;22981;43.080;25.550;2023-09-07T02:28:37;100116.52;;;18.25;75.03
37066;BME280;22981;43.080;25.550;2023-09-07T02:31:05;100111.87;;;18.23;75.18
37066;BME280;22981;43.080;25.550;2023-09-07T02:33:33;100111.59;;;18.22;75.25
37066;BME280;22981;43.080;25.550;2023-09-07T02:36:01;100113.50;;;18.24;75.22
37066;BME280;22981;43.080;25.550;2023-09-07T02:38:29;100106.45;;;18.23;75.24
37066;BME280;22981;43.080;25.550;2023-09-07T02:40:57;100109.43;;;18.24;75.26
37066;BME280;22981;43.080;25.550;2023-09-07T02:43:25;100111.37;;;18.26;75.25
37066;BME280;22981;43.080;25.550;2023-09-07T02:45:53;100107.58;;;18.27;75.21
37066;BME280;22981;43.080;25.550;2023-09-07T02:48:20;100106.22;;;18.27;75.24
37066;BME280;22981;43.080;25.550;2023-09-07T02:50:49;100110.02;;;18.26;75.27
37066;BME280;22981;43.080;25.550;2023-09-07T02:53:17;100111.64;;;18.27;75.25
37066;BME280;22981;43.080;25.550;2023-09-07T02:55:44;100111.37;;;18.26;75.37
37066;BME280;22981;43.080;25.550;2023-09-07T02:58:12;100114.86;;;18.24;75.47
37066;BME280;22981;43.080;25.550;2023-09-07T03:00:43;100119.69;;;18.19;75.52
37066;BME280;22981;43.080;25.550;2023-09-07T03:03:12;100118.81;;;18.14;75.62
37066;BME280;22981;43.080;25.550;2023-09-07T03:05:40;100110.95;;;18.12;75.70
37066;BME280;22981;43.080;25.550;2023-09-07T03:08:08;100105.22;;;18.11;75.73
37066;BME280;22981;43.080;25.550;2023-09-07T03:10:36;100117.72;;;18.12;75.75
37066;BME280;22981;43.080;25.550;2023-09-07T03:13:07;100114.97;;;18.10;75.77
37066;BME280;22981;43.080;25.550;2023-09-07T03:15:35;100116.59;;;18.08;75.77
37066;BME280;22981;43.080;25.550;2023-09-07T03:18:04;100121.65;;;18.02;75.85
37066;BME280;22981;43.080;25.550;2023-09-07T03:20:33;100120.78;;;17.96;76.03
37066;BME280;22981;43.080;25.550;2023-09-07T03:23:01;100123.98;;;17.93;76.06
37066;BME280;22981;43.080;25.550;2023-09-07T03:25:30;100128.58;;;17.93;76.03
37066;BME280;22981;43.080;25.550;2023-09-07T03:27:57;100125.88;;;17.93;75.99
37066;BME280;22981;43.080;25.550;2023-09-07T03:30:25;100128.05;;;17.93;75.92
37066;BME280;22981;43.080;25.550;2023-09-07T03:32:52;100127.23;;;17.93;75.85
37066;BME280;22981;43.080;25.550;2023-09-07T03:35:20;100134.28;;;17.94;75.85
37066;BME280;22981;43.080;25.550;2023-09-07T03:37:48;100129.94;;;17.93;75.86
37066;BME280;22981;43.080;25.550;2023-09-07T03:40:15;100131.83;;;17.92;75.81
37066;BME280;22981;43.080;25.550;2023-09-07T03:42:43;100135.34;;;17.90;75.80
37066;BME280;22981;43.080;25.550;2023-09-07T03:45:12;100141.25;;;17.87;75.91
37066;BME280;22981;43.080;25.550;2023-09-07T03:47:39;100141.53;;;17.88;75.95
37066;BME280;22981;43.080;25.550;2023-09-07T03:50:08;100136.11;;;17.88;75.94
37066;BME280;22981;43.080;25.550;2023-09-07T03:52:36;100139.09;;;17.89;75.92
37066;BME280;22981;43.080;25.550;2023-09-07T03:55:03;100144.82;;;17.90;75.91
37066;BME280;22981;43.080;25.550;2023-09-07T03:57:31;100147.48;;;17.88;75.93
37066;BME280;22981;43.080;25.550;2023-09-07T03:59:59;100144.52;;;17.89;75.94
37066;BME280;22981;43.080;25.550;2023-09-07T04:02:27;100158.05;;;17.89;75.98
37066;BME280;22981;43.080;25.550;2023-09-07T04:04:55;100153.72;;;17.88;76.00
37066;BME280;22981;43.080;25.550;2023-09-07T04:07:22;100158.05;;;17.89;76.04
37066;BME280;22981;43.080;25.550;2023-09-07T04:09:50;100156.42;;;17.88;76.07
37066;BME280;22981;43.080;25.550;2023-09-07T04:12:18;100157.78;;;17.88;76.14
37066;BME280;22981;43.080;25.550;2023-09-07T04:14:46;100158.86;;;17.87;76.22
37066;BME280;22981;43.080;25.550;2023-09-07T04:17:14;100162.34;;;17.85;76.32
37066;BME280;22981;43.080;25.550;2023-09-07T04:19:41;100159.63;;;17.85;76.33
37066;BME280;22981;43.080;25.550;2023-09-07T04:22:11;100159.35;;;17.84;76.30
37066;BME280;22981;43.080;25.550;2023-09-07T04:24:38;100161.78;;;17.83;76.34
37066;BME280;22981;43.080;25.550;2023-09-07T04:27:06;100163.02;;;17.75;76.28
37066;BME280;22981;43.080;25.550;2023-09-07T04:29:34;100166.41;;;17.68;76.49
37066;BME280;22981;43.080;25.550;2023-09-07T04:32:02;100167.14;;;17.61;76.62
37066;BME280;22981;43.080;25.550;2023-09-07T04:34:29;100164.87;;;17.56;76.84
37066;BME280;22981;43.080;25.550;2023-09-07T04:36:58;100172.70;;;17.55;76.90
37066;BME280;22981;43.080;25.550;2023-09-07T04:39:25;100169.98;;;17.52;77.04
37066;BME280;22981;43.080;25.550;2023-09-07T04:41:53;100174.06;;;17.55;77.16
37066;BME280;22981;43.080;25.550;2023-09-07T04:44:20;100175.75;;;17.58;77.09
37066;BME280;22981;43.080;25.550;2023-09-07T04:46:48;100176.84;;;17.60;77.11
37066;BME280;22981;43.080;25.550;2023-09-07T04:49:16;100183.40;;;17.64;77.14
37066;BME280;22981;43.080;25.550;2023-09-07T04:51:44;100181.06;;;17.70;77.05
37066;BME280;22981;43.080;25.550;2023-09-07T04:54:11;100184.16;;;17.76;76.96
37066;BME280;22981;43.080;25.550;2023-09-07T04:56:40;100186.11;;;17.81;76.88
37066;BME280;22981;43.080;25.550;2023-09-07T04:59:07;100190.78;;;17.85;76.86
37066;BME280;22981;43.080;25.550;2023-09-07T05:01:35;100195.44;;;17.90;76.83
37066;BME280;22981;43.080;25.550;2023-09-07T05:04:03;100184.38;;;17.91;76.80
37066;BME280;22981;43.080;25.550;2023-09-07T05:06:30;100187.91;;;17.92;76.88
37066;BME280;22981;43.080;25.550;2023-09-07T05:08:59;100191.69;;;17.91;77.05
37066;BME280;22981;43.080;25.550;2023-09-07T05:11:27;100190.66;;;17.94;77.23
37066;BME280;22981;43.080;25.550;2023-09-07T05:13:55;100197.45;;;17.97;77.21
37066;BME280;22981;43.080;25.550;2023-09-07T05:16:22;100196.14;;;17.99;77.27
37066;BME280;22981;43.080;25.550;2023-09-07T05:18:50;100194.26;;;18.02;77.30
37066;BME280;22981;43.080;25.550;2023-09-07T05:21:17;100195.12;;;18.06;77.19
37066;BME280;22981;43.080;25.550;2023-09-07T05:23:46;100190.80;;;18.07;77.14
37066;BME280;22981;43.080;25.550;2023-09-07T05:26:14;100192.20;;;18.10;77.11
37066;BME280;22981;43.080;25.550;2023-09-07T05:28:41;100192.52;;;18.13;77.00
37066;BME280;22981;43.080;25.550;2023-09-07T05:31:09;100183.59;;;18.15;76.80
37066;BME280;22981;43.080;25.550;2023-09-07T05:33:37;100192.63;;;18.21;76.59
37066;BME280;22981;43.080;25.550;2023-09-07T05:36:04;100193.98;;;18.21;76.44
37066;BME280;22981;43.080;25.550;2023-09-07T05:38:32;100192.14;;;18.26;76.26
37066;BME280;22981;43.080;25.550;2023-09-07T05:40:59;100195.48;;;18.34;76.06
37066;BME280;22981;43.080;25.550;2023-09-07T05:43:27;100195.05;;;18.42;75.79
37066;BME280;22981;43.080;25.550;2023-09-07T05:45:54;100188.33;;;18.49;75.49
37066;BME280;22981;43.080;25.550;2023-09-07T05:48:22;100198.77;;;18.60;75.20
37066;BME280;22981;43.080;25.550;2023-09-07T05:50:50;100201.07;;;18.71;74.94
37066;BME280;22981;43.080;25.550;2023-09-07T05:53:19;100195.50;;;18.83;74.67
37066;BME280;22981;43.080;25.550;2023-09-07T05:55:51;100194.22;;;18.90;74.37
37066;BME280;22981;43.080;25.550;2023-09-07T05:58:18;100197.33;;;19.01;74.12
37066;BME280;22981;43.080;25.550;2023-09-07T06:00:46;100196.28;;;19.08;73.90
37066;BME280;22981;43.080;25.550;2023-09-07T06:03:14;100204.19;;;19.12;73.85
37066;BME280;22981;43.080;25.550;2023-09-07T06:05:41;100207.76;;;19.15;73.93
37066;BME280;22981;43.080;25.550;2023-09-07T06:08:10;100201.24;;;19.16;74.00
37066;BME280;22981;43.080;25.550;2023-09-07T06:10:38;100200.20;;;19.22;73.99
37066;BME280;22981;43.080;25.550;2023-09-07T06:13:05;100198.91;;;19.30;73.85
37066;BME280;22981;43.080;25.550;2023-09-07T06:15:34;100199.52;;;19.37;73.65
37066;BME280;22981;43.080;25.550;2023-09-07T06:18:01;100201.45;;;19.44;73.57
37066;BME280;22981;43.080;25.550;2023-09-07T06:20:29;100195.55;;;19.52;73.59
37066;BME280;22981;43.080;25.550;2023-09-07T06:22:57;100194.52;;;19.58;73.41
37066;BME280;22981;43.080;25.550;2023-09-07T06:25:24;100197.84;;;19.65;73.06
37066;BME280;22981;43.080;25.550;2023-09-07T06:27:53;100188.93;;;19.70;72.40
37066;BME280;22981;43.080;25.550;2023-09-07T06:30:21;100190.86;;;19.74;71.76
37066;BME280;22981;43.080;25.550;2023-09-07T06:32:48;100194.93;;;19.77;71.41
37066;BME280;22981;43.080;25.550;2023-09-07T06:35:17;100193.89;;;19.86;70.95
37066;BME280;22981;43.080;25.550;2023-09-07T06:37:45;100199.11;;;19.92;70.49
37066;BME280;22981;43.080;25.550;2023-09-07T06:40:12;100200.76;;;19.98;70.03
37066;BME280;22981;43.080;25.550;2023-09-07T06:42:41;100193.72;;;20.03;69.46
37066;BME280;22981;43.080;25.550;2023-09-07T06:45:09;100193.75;;;20.10;69.11
37066;BME280;22981;43.080;25.550;2023-09-07T06:47:37;100200.30;;;20.17;68.65
37066;BME280;22981;43.080;25.550;2023-09-07T06:50:06;100199.52;;;20.24;68.02
37066;BME280;22981;43.080;25.550;2023-09-07T06:52:34;100204.45;;;20.32;67.38
37066;BME280;22981;43.080;25.550;2023-09-07T06:55:01;100198.78;;;20.39;67.07
37066;BME280;22981;43.080;25.550;2023-09-07T06:57:29;100200.69;;;20.46;66.54
37066;BME280;22981;43.080;25.550;2023-09-07T06:59:56;100192.87;;;20.52;65.94
37066;BME280;22981;43.080;25.550;2023-09-07T07:02:24;100199.66;;;20.60;65.77
37066;BME280;22981;43.080;25.550;2023-09-07T07:04:52;100194.25;;;20.67;65.60
37066;BME280;22981;43.080;25.550;2023-09-07T07:07:19;100190.19;;;20.75;65.65
37066;BME280;22981;43.080;25.550;2023-09-07T07:09:47;100189.41;;;20.82;65.02
37066;BME280;22981;43.080;25.550;2023-09-07T07:12:15;100185.04;;;20.89;64.87
37066;BME280;22981;43.080;25.550;2023-09-07T07:14:42;100184.79;;;20.95;64.74
37066;BME280;22981;43.080;25.550;2023-09-07T07:17:10;100189.42;;;21.05;64.30
37066;BME280;22981;43.080;25.550;2023-09-07T07:19:37;100190.79;;;21.13;63.87
37066;BME280;22981;43.080;25.550;2023-09-07T07:22:05;100191.61;;;21.21;63.73
37066;BME280;22981;43.080;25.550;2023-09-07T07:24:32;100191.33;;;21.30;63.17
37066;BME280;22981;43.080;25.550;2023-09-07T07:27:00;100188.64;;;21.38;62.83
37066;BME280;22981;43.080;25.550;2023-09-07T07:29:29;100188.61;;;21.45;62.53
37066;BME280;22981;43.080;25.550;2023-09-07T07:31:57;100183.98;;;21.54;62.60
37066;BME280;22981;43.080;25.550;2023-09-07T07:34:24;100183.43;;;21.64;62.17
37066;BME280;22981;43.080;25.550;2023-09-07T07:36:52;100182.87;;;21.72;62.04
37066;BME280;22981;43.080;25.550;2023-09-07T07:39:19;100184.74;;;21.80;62.10
37066;BME280;22981;43.080;25.550;2023-09-07T07:41:47;100177.11;;;21.89;61.95
37066;BME280;22981;43.080;25.550;2023-09-07T07:44:14;100177.33;;;22.00;61.31
37066;BME280;22981;43.080;25.550;2023-09-07T07:46:42;100173.50;;;22.07;60.93
37066;BME280;22981;43.080;25.550;2023-09-07T07:49:09;100169.13;;;22.13;60.61
37066;BME280;22981;43.080;25.550;2023-09-07T07:51:37;100171.83;;;22.23;60.41
37066;BME280;22981;43.080;25.550;2023-09-07T07:54:05;100176.68;;;22.34;60.46
37066;BME280;22981;43.080;25.550;2023-09-07T07:56:33;100168.17;;;22.43;60.28
37066;BME280;22981;43.080;25.550;2023-09-07T07:59:00;100166.52;;;22.53;60.00
37066;BME280;22981;43.080;25.550;2023-09-07T08:01:28;100162.61;;;22.64;59.66
37066;BME280;22981;43.080;25.550;2023-09-07T08:03:56;100162.01;;;22.72;59.75
37066;BME280;22981;43.080;25.550;2023-09-07T08:06:23;100160.56;;;22.82;59.95
37066;BME280;22981;43.080;25.550;2023-09-07T08:08:51;100161.05;;;22.94;60.00
37066;BME280;22981;43.080;25.550;2023-09-07T08:11:18;100158.52;;;23.06;59.69
37066;BME280;22981;43.080;25.550;2023-09-07T08:13:47;100156.23;;;23.18;58.97
37066;BME280;22981;43.080;25.550;2023-09-07T08:16:15;100141.97;;;23.26;58.85
37066;BME280;22981;43.080;25.550;2023-09-07T08:18:43;100134.52;;;23.34;58.39
37066;BME280;22981;43.080;25.550;2023-09-07T08:21:14;100145.33;;;23.44;57.79
37066;BME280;22981;43.080;25.550;2023-09-07T08:23:41;100147.44;;;23.53;57.13
37066;BME280;22981;43.080;25.550;2023-09-07T08:26:09;100151.68;;;23.64;57.04
37066;BME280;22981;43.080;25.550;2023-09-07T08:28:36;100147.27;;;23.73;57.09
37066;BME280;22981;43.080;25.550;2023-09-07T08:31:04;100152.03;;;23.86;57.19
37066;BME280;22981;43.080;25.550;2023-09-07T08:33:32;100152.64;;;24.02;55.57
37066;BME280;22981;43.080;25.550;2023-09-07T08:36:01;100143.47;;;24.14;55.39
37066;BME280;22981;43.080;25.550;2023-09-07T08:38:31;100151.16;;;24.34;54.91
37066;BME280;22981;43.080;25.550;2023-09-07T08:41:00;100154.48;;;24.52;54.71
37066;BME280;22981;43.080;25.550;2023-09-07T08:43:30;100148.00;;;24.67;54.33
37066;BME280;22981;43.080;25.550;2023-09-07T08:46:15;100150.17;;;24.84;53.97
37066;BME280;22981;43.080;25.550;2023-09-07T08:48:31;100144.47;;;24.99;53.28
37066;BME280;22981;43.080;25.550;2023-09-07T08:50:59;100152.41;;;25.17;52.82
37066;BME280;22981;43.080;25.550;2023-09-07T08:53:27;100150.80;;;25.32;51.97
37066;BME280;22981;43.080;25.550;2023-09-07T08:55:57;100144.91;;;25.39;51.05
37066;BME280;22981;43.080;25.550;2023-09-07T08:58:24;100131.24;;;25.53;50.99
37066;BME280;22981;43.080;25.550;2023-09-07T09:00:52;100135.81;;;25.71;50.75
37066;BME280;22981;43.080;25.550;2023-09-07T09:03:21;100143.02;;;25.83;50.04
37066;BME280;22981;43.080;25.550;2023-09-07T09:05:50;100142.84;;;25.91;49.58
37066;BME280;22981;43.080;25.550;2023-09-07T09:08:19;100140.58;;;25.95;49.53
37066;BME280;22981;43.080;25.550;2023-09-07T09:10:48;100139.84;;;26.04;49.32
37066;BME280;22981;43.080;25.550;2023-09-07T09:13:16;100143.28;;;26.23;49.26
37066;BME280;22981;43.080;25.550;2023-09-07T09:15:47;100141.64;;;26.36;48.42
37066;BME280;22981;43.080;25.550;2023-09-07T09:18:15;100133.80;;;26.43;48.47
37066;BME280;22981;43.080;25.550;2023-09-07T09:20:43;100129.34;;;26.58;48.06
37066;BME280;22981;43.080;25.550;2023-09-07T09:23:11;100134.34;;;26.67;48.36
37066;BME280;22981;43.080;25.550;2023-09-07T09:25:41;100130.48;;;26.80;47.46
37066;BME280;22981;43.080;25.550;2023-09-07T09:28:09;100132.81;;;26.86;46.79
37066;BME280;22981;43.080;25.550;2023-09-07T09:30:38;100128.52;;;26.94;46.70
37066;BME280;22981;43.080;25.550;2023-09-07T09:33:05;100122.80;;;27.02;46.47
37066;BME280;22981;43.080;25.550;2023-09-07T09:35:35;100118.52;;;27.09;46.42
37066;BME280;22981;43.080;25.550;2023-09-07T09:38:02;100125.16;;;27.19;46.19
37066;BME280;22981;43.080;25.550;2023-09-07T09:40:32;100126.30;;;27.27;45.77
37066;BME280;22981;43.080;25.550;2023-09-07T09:43:02;100119.38;;;27.30;45.85
37066;BME280;22981;43.080;25.550;2023-09-07T09:45:31;100115.11;;;27.35;45.48
37066;BME280;22981;43.080;25.550;2023-09-07T09:47:59;100112.17;;;27.31;44.85
37066;BME280;22981;43.080;25.550;2023-09-07T09:50:27;100109.13;;;27.33;44.87
37066;BME280;22981;43.080;25.550;2023-09-07T09:52:55;100106.11;;;27.32;44.44
37066;BME280;22981;43.080;25.550;2023-09-07T09:55:24;100107.91;;;27.36;44.94
37066;BME280;22981;43.080;25.550;2023-09-07T09:57:51;100096.15;;;27.44;44.49
37066;BME280;22981;43.080;25.550;2023-09-07T10:00:21;100096.90;;;27.48;44.44
37066;BME280;22981;43.080;25.550;2023-09-07T10:03:08;100098.52;;;27.49;44.64
37066;BME280;22981;43.080;25.550;2023-09-07T10:05:32;100089.58;;;27.54;44.73
37066;BME280;22981;43.080;25.550;2023-09-07T10:08:02;100091.05;;;27.60;44.46
37066;BME280;22981;43.080;25.550;2023-09-07T10:10:36;100082.46;;;27.62;44.28
37066;BME280;22981;43.080;25.550;2023-09-07T10:13:04;100074.87;;;27.59;44.84
37066;BME280;22981;43.080;25.550;2023-09-07T10:15:32;100073.22;;;27.58;44.77
37066;BME280;22981;43.080;25.550;2023-09-07T10:18:13;100075.67;;;27.59;44.38
37066;BME280;22981;43.080;25.550;2023-09-07T10:23:34;100065.13;;;27.53;43.30
37066;BME280;22981;43.080;25.550;2023-09-07T10:25:53;100066.43;;;27.35;42.99
37066;BME280;22981;43.080;25.550;2023-09-07T10:28:25;100060.89;;;27.27;42.64
37066;BME280;22981;43.080;25.550;2023-09-07T10:31:34;100058.72;;;27.26;42.86
37066;BME280;22981;43.080;25.550;2023-09-07T10:33:36;100057.24;;;27.20;42.31
37066;BME280;22981;43.080;25.550;2023-09-07T10:36:04;100065.31;;;26.94;42.74
37066;BME280;22981;43.080;25.550;2023-09-07T10:38:33;100062.77;;;26.86;43.19
37066;BME280;22981;43.080;25.550;2023-09-07T10:41:02;100056.94;;;26.88;42.83
37066;BME280;22981;43.080;25.550;2023-09-07T10:43:31;100045.19;;;26.96;42.90
37066;BME280;22981;43.080;25.550;2023-09-07T10:46:00;100039.50;;;27.04;43.08
37066;BME280;22981;43.080;25.550;2023-09-07T10:48:31;100043.68;;;27.01;42.87
37066;BME280;22981;43.080;25.550;2023-09-07T10:50:59;100040.08;;;27.03;42.74
37066;BME280;22981;43.080;25.550;2023-09-07T10:53:33;100039.02;;;27.13;42.56
37066;BME280;22981;43.080;25.550;2023-09-07T10:55:59;100039.34;;;27.11;42.05
37066;BME280;22981;43.080;25.550;2023-09-07T10:58:35;100038.72;;;27.23;42.09
37066;BME280;22981;43.080;25.550;2023-09-07T11:03:25;100025.16;;;27.46;41.80
37066;BME280;22981;43.080;25.550;2023-09-07T11:06:03;100026.63;;;27.53;41.68
37066;BME280;22981;43.080;25.550;2023-09-07T11:08:28;100022.34;;;27.58;41.41
37066;BME280;22981;43.080;25.550;2023-09-07T11:10:56;100019.09;;;27.47;41.26
37066;BME280;22981;43.080;25.550;2023-09-07T11:13:25;100015.69;;;27.41;41.45
37066;BME280;22981;43.080;25.550;2023-09-07T11:15:57;100013.59;;;27.27;41.64
37066;BME280;22981;43.080;25.550;2023-09-07T11:18:25;100007.59;;;27.16;42.02
37066;BME280;22981;43.080;25.550;2023-09-07T11:20:53;100002.75;;;27.22;41.45
37066;BME280;22981;43.080;25.550;2023-09-07T11:23:21;99999.41;;;27.34;41.37
37066;BME280;22981;43.080;25.550;2023-09-07T11:25:50;99998.95;;;27.49;41.58
37066;BME280;22981;43.080;25.550;2023-09-07T11:28:19;99993.64;;;27.61;41.42
37066;BME280;22981;43.080;25.550;2023-09-07T11:30:54;99994.80;;;27.69;40.97
37066;BME280;22981;43.080;25.550;2023-09-07T11:33:22;99993.80;;;27.56;40.99
37066;BME280;22981;43.080;25.550;2023-09-07T11:35:51;99991.81;;;27.39;41.20
37066;BME280;22981;43.080;25.550;2023-09-07T11:38:20;99989.00;;;27.42;40.71
37066;BME280;22981;43.080;25.550;2023-09-07T11:40:48;99989.33;;;27.49;40.17
37066;BME280;22981;43.080;25.550;2023-09-07T11:43:17;99976.63;;;27.42;40.14
37066;BME280;22981;43.080;25.550;2023-09-07T11:45:47;99978.13;;;27.28;39.99
37066;BME280;22981;43.080;25.550;2023-09-07T11:48:15;99977.30;;;27.28;39.13
37066;BME280;22981;43.080;25.550;2023-09-07T11:50:42;99964.80;;;27.33;38.51
37066;BME280;22981;43.080;25.550;2023-09-07T11:53:10;99971.15;;;27.51;39.15
37066;BME280;22981;43.080;25.550;2023-09-07T11:55:38;99975.94;;;27.65;38.11
37066;BME280;22981;43.080;25.550;2023-09-07T11:58:07;99967.34;;;27.58;38.00
37066;BME280;22981;43.080;25.550;2023-09-07T12:00:35;99965.87;;;27.43;38.28
37066;BME280;22981;43.080;25.550;2023-09-07T12:03:03;99969.27;;;27.49;39.03
37066;BME280;22981;43.080;25.550;2023-09-07T12:05:31;99963.72;;;27.60;39.51
37066;BME280;22981;43.080;25.550;2023-09-07T12:07:58;99964.75;;;27.53;39.69
37066;BME280;22981;43.080;25.550;2023-09-07T12:10:27;99963.58;;;27.36;40.26
37066;BME280;22981;43.080;25.550;2023-09-07T12:12:54;99967.34;;;27.20;40.14
37066;BME280;22981;43.080;25.550;2023-09-07T12:15:22;99960.56;;;27.07;40.28
37066;BME280;22981;43.080;25.550;2023-09-07T12:17:49;99957.03;;;26.95;40.60
37066;BME280;22981;43.080;25.550;2023-09-07T12:20:18;99965.30;;;26.84;40.96
37066;BME280;22981;43.080;25.550;2023-09-07T12:22:46;99957.34;;;26.74;41.07
37066;BME280;22981;43.080;25.550;2023-09-07T12:25:15;99960.98;;;26.80;40.81
37066;BME280;22981;43.080;25.550;2023-09-07T12:27:43;99951.81;;;27.05;40.22
37066;BME280;22981;43.080;25.550;2023-09-07T12:30:11;99951.57;;;27.24;40.21
37066;BME280;22981;43.080;25.550;2023-09-07T12:32:40;99945.77;;;27.25;40.04
37066;BME280;22981;43.080;25.550;2023-09-07T12:35:08;99944.91;;;27.44;39.68
37066;BME280;22981;43.080;25.550;2023-09-07T12:37:36;99943.58;;;27.70;39.72
37066;BME280;22981;43.080;25.550;2023-09-07T12:40:04;99941.94;;;27.98;38.97
37066;BME280;22981;43.080;25.550;2023-09-07T12:42:33;99945.02;;;28.14;38.73
37066;BME280;22981;43.080;25.550;2023-09-07T12:45:01;99937.21;;;28.25;38.32
37066;BME280;22981;43.080;25.550;2023-09-07T12:47:30;99934.44;;;28.33;37.98
37066;BME280;22981;43.080;25.550;2023-09-07T12:49:57;99933.58;;;28.44;38.09